< < Back
Terminal Aerodrome Forecast


Current Version              Previous Versions:   1  2  3  4  5  6  7  8  9  

Terminal Aerodrome Forecast

705
FTUS42 KJAX 270539
TAFGNV
TAF
KGNV 270539Z 2706/2806 VRB02KT P6SM BKN250
     FM271400 08008KT P6SM VCSH BKN035
     FM271800 09010KT P6SM VCSH BKN040 BKN250
     FM272300 08010KT P6SM SCT250=



Latest METAR

502
SAUS70 KWBC 280200 RRG
MTRGNV
METAR KGNV 280153Z 06005KT 10SM CLR 26/23 A3000 RMK AO2 SLP156
T02610233


USA.gov is the U.S. government's official web portal to all federal, state and local government web resources and services.